sensor_id;sensor_type;location;lat;lon;timestamp;P1;durP1;ratioP1;P2;durP2;ratioP2
18046;SDS011;9148;51.454;13.862;2023-08-21T00:01:40;2.17;;;1.10;;
18046;SDS011;9148;51.454;13.862;2023-08-21T00:04:06;3.33;;;1.38;;
18046;SDS011;9148;51.454;13.862;2023-08-21T00:06:31;1.10;;;1.00;;
18046;SDS011;9148;51.454;13.862;2023-08-21T00:08:57;3.70;;;1.20;;
18046;SDS011;9148;51.454;13.862;2023-08-21T00:11:23;1.55;;;1.17;;
18046;SDS011;9148;51.454;13.862;2023-08-21T00:13:49;2.53;;;1.50;;
18046;SDS011;9148;51.454;13.862;2023-08-21T00:16:16;1.60;;;1.17;;
18046;SDS011;9148;51.454;13.862;2023-08-21T00:18:42;1.00;;;0.90;;
18046;SDS011;9148;51.454;13.862;2023-08-21T00:21:08;2.65;;;1.40;;
18046;SDS011;9148;51.454;13.862;2023-08-21T00:23:34;1.42;;;1.33;;
18046;SDS011;9148;51.454;13.862;2023-08-21T00:26:00;1.48;;;1.38;;
18046;SDS011;9148;51.454;13.862;2023-08-21T00:28:25;2.08;;;1.15;;
18046;SDS011;9148;51.454;13.862;2023-08-21T00:30:51;2.17;;;1.33;;
18046;SDS011;9148;51.454;13.862;2023-08-21T00:33:26;1.67;;;1.02;;
18046;SDS011;9148;51.454;13.862;2023-08-21T00:35:56;1.70;;;1.48;;
18046;SDS011;9148;51.454;13.862;2023-08-21T00:38:22;1.65;;;1.08;;
18046;SDS011;9148;51.454;13.862;2023-08-21T00:40:48;1.48;;;1.35;;
18046;SDS011;9148;51.454;13.862;2023-08-21T00:43:14;3.15;;;1.13;;
18046;SDS011;9148;51.454;13.862;2023-08-21T00:45:40;2.88;;;1.83;;
18046;SDS011;9148;51.454;13.862;2023-08-21T00:48:09;1.08;;;0.98;;
18046;SDS011;9148;51.454;13.862;2023-08-21T00:50:36;1.75;;;1.55;;
18046;SDS011;9148;51.454;13.862;2023-08-21T00:53:02;5.32;;;1.55;;
18046;SDS011;9148;51.454;13.862;2023-08-21T00:55:28;0.98;;;0.90;;
18046;SDS011;9148;51.454;13.862;2023-08-21T00:57:55;2.08;;;1.20;;
18046;SDS011;9148;51.454;13.862;2023-08-21T01:00:21;2.35;;;1.30;;
18046;SDS011;9148;51.454;13.862;2023-08-21T01:02:49;2.05;;;1.48;;
18046;SDS011;9148;51.454;13.862;2023-08-21T01:05:17;2.45;;;1.92;;
18046;SDS011;9148;51.454;13.862;2023-08-21T01:11:06;2.03;;;1.25;;
18046;SDS011;9148;51.454;13.862;2023-08-21T01:14:06;2.33;;;1.77;;
18046;SDS011;9148;51.454;13.862;2023-08-21T01:16:42;4.03;;;1.58;;
18046;SDS011;9148;51.454;13.862;2023-08-21T01:19:17;3.90;;;1.60;;
18046;SDS011;9148;51.454;13.862;2023-08-21T01:21:51;2.95;;;1.45;;
18046;SDS011;9148;51.454;13.862;2023-08-21T01:24:19;3.13;;;2.10;;
18046;SDS011;9148;51.454;13.862;2023-08-21T01:26:45;2.63;;;1.52;;
18046;SDS011;9148;51.454;13.862;2023-08-21T01:29:11;1.33;;;1.23;;
18046;SDS011;9148;51.454;13.862;2023-08-21T01:31:36;1.90;;;1.40;;
18046;SDS011;9148;51.454;13.862;2023-08-21T01:34:04;2.40;;;1.40;;
18046;SDS011;9148;51.454;13.862;2023-08-21T01:36:33;2.90;;;1.38;;
18046;SDS011;9148;51.454;13.862;2023-08-21T01:39:00;1.25;;;1.15;;
18046;SDS011;9148;51.454;13.862;2023-08-21T01:41:25;2.70;;;1.33;;
18046;SDS011;9148;51.454;13.862;2023-08-21T01:43:54;1.80;;;1.60;;
18046;SDS011;9148;51.454;13.862;2023-08-21T01:46:20;2.42;;;2.03;;
18046;SDS011;9148;51.454;13.862;2023-08-21T01:48:46;2.20;;;1.95;;
18046;SDS011;9148;51.454;13.862;2023-08-21T01:51:12;1.70;;;1.17;;
18046;SDS011;9148;51.454;13.862;2023-08-21T01:53:38;1.50;;;1.38;;
18046;SDS011;9148;51.454;13.862;2023-08-21T01:56:03;1.40;;;1.15;;
18046;SDS011;9148;51.454;13.862;2023-08-21T01:58:29;2.95;;;1.75;;
18046;SDS011;9148;51.454;13.862;2023-08-21T02:00:55;2.55;;;1.75;;
18046;SDS011;9148;51.454;13.862;2023-08-21T02:03:20;2.03;;;1.40;;
18046;SDS011;9148;51.454;13.862;2023-08-21T02:05:46;2.38;;;2.13;;
18046;SDS011;9148;51.454;13.862;2023-08-21T02:08:13;2.15;;;1.92;;
18046;SDS011;9148;51.454;13.862;2023-08-21T02:10:51;2.75;;;1.50;;
18046;SDS011;9148;51.454;13.862;2023-08-21T02:13:17;2.00;;;1.65;;
18046;SDS011;9148;51.454;13.862;2023-08-21T02:15:44;2.55;;;1.52;;
18046;SDS011;9148;51.454;13.862;2023-08-21T02:18:09;2.72;;;1.75;;
18046;SDS011;9148;51.454;13.862;2023-08-21T02:20:35;2.13;;;1.60;;
18046;SDS011;9148;51.454;13.862;2023-08-21T02:23:01;2.35;;;1.60;;
18046;SDS011;9148;51.454;13.862;2023-08-21T02:25:26;2.35;;;1.65;;
18046;SDS011;9148;51.454;13.862;2023-08-21T02:27:52;2.78;;;1.70;;
18046;SDS011;9148;51.454;13.862;2023-08-21T02:30:18;2.45;;;1.48;;
18046;SDS011;9148;51.454;13.862;2023-08-21T02:32:45;1.73;;;1.58;;
18046;SDS011;9148;51.454;13.862;2023-08-21T02:35:10;1.75;;;1.25;;
18046;SDS011;9148;51.454;13.862;2023-08-21T02:37:36;2.08;;;1.42;;
18046;SDS011;9148;51.454;13.862;2023-08-21T02:40:04;7.32;;;2.20;;
18046;SDS011;9148;51.454;13.862;2023-08-21T02:42:33;3.50;;;2.40;;
18046;SDS011;9148;51.454;13.862;2023-08-21T02:44:58;1.98;;;1.88;;
18046;SDS011;9148;51.454;13.862;2023-08-21T02:47:24;1.88;;;1.35;;
18046;SDS011;9148;51.454;13.862;2023-08-21T02:49:50;2.75;;;2.08;;
18046;SDS011;9148;51.454;13.862;2023-08-21T02:52:17;4.18;;;1.95;;
18046;SDS011;9148;51.454;13.862;2023-08-21T02:54:43;2.20;;;1.75;;
18046;SDS011;9148;51.454;13.862;2023-08-21T02:57:08;2.35;;;1.80;;
18046;SDS011;9148;51.454;13.862;2023-08-21T02:59:34;2.67;;;2.05;;
18046;SDS011;9148;51.454;13.862;2023-08-21T03:02:00;1.88;;;1.50;;
18046;SDS011;9148;51.454;13.862;2023-08-21T03:04:25;2.97;;;1.95;;
18046;SDS011;9148;51.454;13.862;2023-08-21T03:06:51;2.05;;;1.85;;
18046;SDS011;9148;51.454;13.862;2023-08-21T03:09:16;3.03;;;1.73;;
18046;SDS011;9148;51.454;13.862;2023-08-21T03:11:42;2.33;;;1.60;;
18046;SDS011;9148;51.454;13.862;2023-08-21T03:14:08;2.10;;;1.77;;
18046;SDS011;9148;51.454;13.862;2023-08-21T03:16:33;3.50;;;1.88;;
18046;SDS011;9148;51.454;13.862;2023-08-21T03:18:59;1.50;;;1.35;;
18046;SDS011;9148;51.454;13.862;2023-08-21T03:21:25;1.90;;;1.50;;
18046;SDS011;9148;51.454;13.862;2023-08-21T03:23:55;2.28;;;2.00;;
18046;SDS011;9148;51.454;13.862;2023-08-21T03:26:23;2.03;;;1.40;;
18046;SDS011;9148;51.454;13.862;2023-08-21T03:28:49;1.50;;;1.40;;
18046;SDS011;9148;51.454;13.862;2023-08-21T03:31:14;2.53;;;1.55;;
18046;SDS011;9148;51.454;13.862;2023-08-21T03:33:40;5.15;;;1.70;;
18046;SDS011;9148;51.454;13.862;2023-08-21T03:36:06;6.28;;;2.33;;
18046;SDS011;9148;51.454;13.862;2023-08-21T03:38:32;2.80;;;1.98;;
18046;SDS011;9148;51.454;13.862;2023-08-21T03:40:58;3.35;;;1.92;;
18046;SDS011;9148;51.454;13.862;2023-08-21T03:43:24;3.70;;;2.40;;
18046;SDS011;9148;51.454;13.862;2023-08-21T03:45:50;4.07;;;2.55;;
18046;SDS011;9148;51.454;13.862;2023-08-21T03:48:16;3.00;;;2.08;;
18046;SDS011;9148;51.454;13.862;2023-08-21T03:50:41;3.03;;;1.98;;
18046;SDS011;9148;51.454;13.862;2023-08-21T03:53:07;2.15;;;1.95;;
18046;SDS011;9148;51.454;13.862;2023-08-21T03:55:33;2.42;;;2.22;;
18046;SDS011;9148;51.454;13.862;2023-08-21T03:57:59;2.50;;;1.92;;
18046;SDS011;9148;51.454;13.862;2023-08-21T04:00:25;2.60;;;2.20;;
18046;SDS011;9148;51.454;13.862;2023-08-21T04:02:51;3.47;;;2.50;;
18046;SDS011;9148;51.454;13.862;2023-08-21T04:05:17;1.92;;;1.83;;
18046;SDS011;9148;51.454;13.862;2023-08-21T04:07:42;3.03;;;2.03;;
18046;SDS011;9148;51.454;13.862;2023-08-21T04:10:08;3.88;;;2.15;;
18046;SDS011;9148;51.454;13.862;2023-08-21T04:12:34;3.58;;;2.22;;
18046;SDS011;9148;51.454;13.862;2023-08-21T04:14:59;2.25;;;2.05;;
18046;SDS011;9148;51.454;13.862;2023-08-21T04:17:25;2.92;;;2.22;;
18046;SDS011;9148;51.454;13.862;2023-08-21T04:19:51;3.35;;;1.92;;
18046;SDS011;9148;51.454;13.862;2023-08-21T04:22:16;3.92;;;2.42;;
18046;SDS011;9148;51.454;13.862;2023-08-21T04:24:42;3.42;;;1.92;;
18046;SDS011;9148;51.454;13.862;2023-08-21T04:27:08;2.50;;;2.30;;
18046;SDS011;9148;51.454;13.862;2023-08-21T04:29:37;2.30;;;1.92;;
18046;SDS011;9148;51.454;13.862;2023-08-21T04:32:04;2.47;;;1.83;;
18046;SDS011;9148;51.454;13.862;2023-08-21T04:34:32;2.03;;;1.77;;
18046;SDS011;9148;51.454;13.862;2023-08-21T04:36:58;3.35;;;2.42;;
18046;SDS011;9148;51.454;13.862;2023-08-21T04:39:23;4.30;;;2.55;;
18046;SDS011;9148;51.454;13.862;2023-08-21T04:41:49;4.18;;;2.17;;
18046;SDS011;9148;51.454;13.862;2023-08-21T04:44:15;4.05;;;2.67;;
18046;SDS011;9148;51.454;13.862;2023-08-21T04:46:40;2.20;;;2.00;;
18046;SDS011;9148;51.454;13.862;2023-08-21T04:49:06;3.13;;;2.05;;
18046;SDS011;9148;51.454;13.862;2023-08-21T04:51:32;3.47;;;2.67;;
18046;SDS011;9148;51.454;13.862;2023-08-21T04:53:57;2.97;;;2.47;;
18046;SDS011;9148;51.454;13.862;2023-08-21T04:56:24;3.05;;;2.50;;
18046;SDS011;9148;51.454;13.862;2023-08-21T04:58:51;4.82;;;2.08;;
18046;SDS011;9148;51.454;13.862;2023-08-21T05:01:20;2.17;;;1.98;;
18046;SDS011;9148;51.454;13.862;2023-08-21T05:03:46;2.15;;;1.92;;
18046;SDS011;9148;51.454;13.862;2023-08-21T05:06:11;2.90;;;2.28;;
18046;SDS011;9148;51.454;13.862;2023-08-21T05:08:37;5.63;;;2.42;;
18046;SDS011;9148;51.454;13.862;2023-08-21T05:11:02;2.70;;;2.08;;
18046;SDS011;9148;51.454;13.862;2023-08-21T05:13:28;5.88;;;2.85;;
18046;SDS011;9148;51.454;13.862;2023-08-21T05:15:54;3.67;;;2.53;;
18046;SDS011;9148;51.454;13.862;2023-08-21T05:18:22;2.75;;;2.55;;
18046;SDS011;9148;51.454;13.862;2023-08-21T05:20:49;3.42;;;1.92;;
18046;SDS011;9148;51.454;13.862;2023-08-21T05:23:18;2.72;;;2.08;;
18046;SDS011;9148;51.454;13.862;2023-08-21T05:25:44;2.55;;;2.35;;
18046;SDS011;9148;51.454;13.862;2023-08-21T05:28:11;2.90;;;2.47;;
18046;SDS011;9148;51.454;13.862;2023-08-21T05:30:37;2.90;;;2.05;;
18046;SDS011;9148;51.454;13.862;2023-08-21T05:33:03;6.07;;;2.90;;
18046;SDS011;9148;51.454;13.862;2023-08-21T05:35:32;3.30;;;2.80;;
18046;SDS011;9148;51.454;13.862;2023-08-21T05:38:00;2.88;;;2.55;;
18046;SDS011;9148;51.454;13.862;2023-08-21T05:40:27;13.57;;;2.55;;
18046;SDS011;9148;51.454;13.862;2023-08-21T05:42:53;3.33;;;1.95;;
18046;SDS011;9148;51.454;13.862;2023-08-21T05:45:19;12.43;;;3.05;;
18046;SDS011;9148;51.454;13.862;2023-08-21T05:47:44;3.88;;;2.75;;
18046;SDS011;9148;51.454;13.862;2023-08-21T05:50:10;4.13;;;3.72;;
18046;SDS011;9148;51.454;13.862;2023-08-21T05:52:36;5.38;;;3.60;;
18046;SDS011;9148;51.454;13.862;2023-08-21T05:55:01;4.43;;;2.83;;
18046;SDS011;9148;51.454;13.862;2023-08-21T05:57:27;3.38;;;2.95;;
18046;SDS011;9148;51.454;13.862;2023-08-21T05:59:53;4.47;;;4.05;;
18046;SDS011;9148;51.454;13.862;2023-08-21T06:02:19;4.18;;;3.33;;
18046;SDS011;9148;51.454;13.862;2023-08-21T06:04:45;3.72;;;3.03;;
18046;SDS011;9148;51.454;13.862;2023-08-21T06:07:11;4.30;;;3.13;;
18046;SDS011;9148;51.454;13.862;2023-08-21T06:09:36;4.65;;;3.60;;
18046;SDS011;9148;51.454;13.862;2023-08-21T06:12:03;4.30;;;3.03;;
18046;SDS011;9148;51.454;13.862;2023-08-21T06:14:29;3.83;;;2.50;;
18046;SDS011;9148;51.454;13.862;2023-08-21T06:16:58;4.20;;;3.00;;
18046;SDS011;9148;51.454;13.862;2023-08-21T06:19:26;3.38;;;2.70;;
18046;SDS011;9148;51.454;13.862;2023-08-21T06:21:52;3.97;;;2.20;;
18046;SDS011;9148;51.454;13.862;2023-08-21T06:24:18;3.30;;;2.97;;
18046;SDS011;9148;51.454;13.862;2023-08-21T06:26:43;5.65;;;3.58;;
18046;SDS011;9148;51.454;13.862;2023-08-21T06:29:09;4.65;;;2.85;;
18046;SDS011;9148;51.454;13.862;2023-08-21T06:31:34;3.35;;;2.63;;
18046;SDS011;9148;51.454;13.862;2023-08-21T06:34:00;5.88;;;3.47;;
18046;SDS011;9148;51.454;13.862;2023-08-21T06:36:26;5.68;;;3.50;;
18046;SDS011;9148;51.454;13.862;2023-08-21T06:38:51;4.82;;;3.17;;
18046;SDS011;9148;51.454;13.862;2023-08-21T06:41:17;3.90;;;3.17;;
18046;SDS011;9148;51.454;13.862;2023-08-21T06:43:43;3.13;;;2.42;;
18046;SDS011;9148;51.454;13.862;2023-08-21T06:46:10;5.18;;;3.05;;
18046;SDS011;9148;51.454;13.862;2023-08-21T06:48:37;4.68;;;3.17;;
18046;SDS011;9148;51.454;13.862;2023-08-21T06:51:08;7.63;;;3.95;;
18046;SDS011;9148;51.454;13.862;2023-08-21T06:53:35;7.32;;;4.55;;
18046;SDS011;9148;51.454;13.862;2023-08-21T06:56:00;4.13;;;3.22;;
18046;SDS011;9148;51.454;13.862;2023-08-21T06:58:26;5.72;;;4.13;;
18046;SDS011;9148;51.454;13.862;2023-08-21T07:00:55;4.35;;;3.53;;
18046;SDS011;9148;51.454;13.862;2023-08-21T07:03:21;12.48;;;4.45;;
18046;SDS011;9148;51.454;13.862;2023-08-21T07:05:53;5.68;;;3.53;;
18046;SDS011;9148;51.454;13.862;2023-08-21T07:08:23;10.10;;;3.95;;
18046;SDS011;9148;51.454;13.862;2023-08-21T07:10:49;6.00;;;4.13;;
18046;SDS011;9148;51.454;13.862;2023-08-21T07:13:15;5.65;;;4.35;;
18046;SDS011;9148;51.454;13.862;2023-08-21T07:15:41;5.40;;;3.60;;
18046;SDS011;9148;51.454;13.862;2023-08-21T07:18:06;5.40;;;4.75;;
18046;SDS011;9148;51.454;13.862;2023-08-21T07:20:33;4.05;;;3.25;;
18046;SDS011;9148;51.454;13.862;2023-08-21T07:22:59;7.00;;;4.53;;
18046;SDS011;9148;51.454;13.862;2023-08-21T07:25:25;4.45;;;3.70;;
18046;SDS011;9148;51.454;13.862;2023-08-21T07:27:51;6.95;;;4.38;;
18046;SDS011;9148;51.454;13.862;2023-08-21T07:30:20;7.13;;;4.13;;
18046;SDS011;9148;51.454;13.862;2023-08-21T07:32:47;7.78;;;4.53;;
18046;SDS011;9148;51.454;13.862;2023-08-21T07:35:13;10.57;;;5.40;;
18046;SDS011;9148;51.454;13.862;2023-08-21T07:37:43;5.85;;;4.13;;
18046;SDS011;9148;51.454;13.862;2023-08-21T07:40:09;4.45;;;4.05;;
18046;SDS011;9148;51.454;13.862;2023-08-21T07:42:36;7.55;;;4.78;;
18046;SDS011;9148;51.454;13.862;2023-08-21T07:45:02;5.45;;;3.67;;
18046;SDS011;9148;51.454;13.862;2023-08-21T07:47:28;4.65;;;3.58;;
18046;SDS011;9148;51.454;13.862;2023-08-21T07:49:54;6.22;;;3.80;;
18046;SDS011;9148;51.454;13.862;2023-08-21T07:52:21;5.32;;;3.53;;
18046;SDS011;9148;51.454;13.862;2023-08-21T07:54:50;5.07;;;4.30;;
18046;SDS011;9148;51.454;13.862;2023-08-21T07:57:17;6.07;;;3.78;;
18046;SDS011;9148;51.454;13.862;2023-08-21T07:59:43;8.45;;;4.63;;
18046;SDS011;9148;51.454;13.862;2023-08-21T08:02:09;4.50;;;3.58;;
18046;SDS011;9148;51.454;13.862;2023-08-21T08:04:36;5.25;;;3.40;;
18046;SDS011;9148;51.454;13.862;2023-08-21T08:07:03;5.78;;;4.30;;
18046;SDS011;9148;51.454;13.862;2023-08-21T08:09:29;3.28;;;3.03;;
18046;SDS011;9148;51.454;13.862;2023-08-21T08:11:55;5.38;;;3.35;;
18046;SDS011;9148;51.454;13.862;2023-08-21T08:14:20;6.97;;;3.88;;
18046;SDS011;9148;51.454;13.862;2023-08-21T08:16:46;5.75;;;3.60;;
18046;SDS011;9148;51.454;13.862;2023-08-21T08:19:12;5.50;;;3.95;;
18046;SDS011;9148;51.454;13.862;2023-08-21T08:21:37;6.63;;;4.88;;
18046;SDS011;9148;51.454;13.862;2023-08-21T08:24:03;4.47;;;3.42;;
18046;SDS011;9148;51.454;13.862;2023-08-21T08:26:29;6.22;;;3.50;;
18046;SDS011;9148;51.454;13.862;2023-08-21T08:28:54;4.93;;;3.70;;
18046;SDS011;9148;51.454;13.862;2023-08-21T08:31:20;7.63;;;4.93;;
18046;SDS011;9148;51.454;13.862;2023-08-21T08:33:46;6.03;;;3.60;;
18046;SDS011;9148;51.454;13.862;2023-08-21T08:36:13;5.68;;;3.60;;
18046;SDS011;9148;51.454;13.862;2023-08-21T08:38:39;4.78;;;3.63;;
18046;SDS011;9148;51.454;13.862;2023-08-21T08:41:10;5.18;;;3.63;;
18046;SDS011;9148;51.454;13.862;2023-08-21T08:43:41;4.32;;;2.67;;
18046;SDS011;9148;51.454;13.862;2023-08-21T08:46:08;5.82;;;3.53;;
18046;SDS011;9148;51.454;13.862;2023-08-21T08:48:35;8.73;;;3.85;;
18046;SDS011;9148;51.454;13.862;2023-08-21T08:51:02;5.18;;;3.47;;
18046;SDS011;9148;51.454;13.862;2023-08-21T08:53:31;6.45;;;4.38;;
18046;SDS011;9148;51.454;13.862;2023-08-21T08:55:57;5.55;;;4.00;;
18046;SDS011;9148;51.454;13.862;2023-08-21T08:58:23;4.03;;;2.95;;
18046;SDS011;9148;51.454;13.862;2023-08-21T09:00:49;5.65;;;3.13;;
18046;SDS011;9148;51.454;13.862;2023-08-21T09:03:15;5.50;;;3.28;;
18046;SDS011;9148;51.454;13.862;2023-08-21T09:05:41;6.82;;;3.83;;
18046;SDS011;9148;51.454;13.862;2023-08-21T09:10:37;4.80;;;3.22;;
18046;SDS011;9148;51.454;13.862;2023-08-21T09:15:42;4.82;;;2.90;;
18046;SDS011;9148;51.454;13.862;2023-08-21T09:18:14;7.50;;;3.55;;
18046;SDS011;9148;51.454;13.862;2023-08-21T09:20:40;5.43;;;3.17;;
18046;SDS011;9148;51.454;13.862;2023-08-21T09:23:07;5.07;;;3.13;;
18046;SDS011;9148;51.454;13.862;2023-08-21T09:25:39;5.15;;;3.80;;
18046;SDS011;9148;51.454;13.862;2023-08-21T09:28:06;5.15;;;3.47;;
18046;SDS011;9148;51.454;13.862;2023-08-21T09:30:52;9.10;;;3.97;;
18046;SDS011;9148;51.454;13.862;2023-08-21T09:33:20;7.10;;;4.20;;
18046;SDS011;9148;51.454;13.862;2023-08-21T09:35:47;9.75;;;3.92;;
18046;SDS011;9148;51.454;13.862;2023-08-21T09:38:16;6.13;;;3.47;;
18046;SDS011;9148;51.454;13.862;2023-08-21T09:40:42;5.95;;;3.65;;
18046;SDS011;9148;51.454;13.862;2023-08-21T09:43:18;4.78;;;3.05;;
18046;SDS011;9148;51.454;13.862;2023-08-21T09:45:47;5.13;;;3.30;;
18046;SDS011;9148;51.454;13.862;2023-08-21T09:48:18;4.53;;;3.28;;
18046;SDS011;9148;51.454;13.862;2023-08-21T09:50:46;4.28;;;3.55;;
18046;SDS011;9148;51.454;13.862;2023-08-21T09:53:12;6.18;;;3.72;;
18046;SDS011;9148;51.454;13.862;2023-08-21T09:55:38;5.15;;;4.05;;
18046;SDS011;9148;51.454;13.862;2023-08-21T09:58:05;4.38;;;3.30;;
18046;SDS011;9148;51.454;13.862;2023-08-21T10:00:33;3.65;;;3.15;;
18046;SDS011;9148;51.454;13.862;2023-08-21T10:03:03;7.00;;;3.25;;
18046;SDS011;9148;51.454;13.862;2023-08-21T10:05:34;5.80;;;3.35;;
18046;SDS011;9148;51.454;13.862;2023-08-21T10:08:02;6.70;;;3.38;;
18046;SDS011;9148;51.454;13.862;2023-08-21T10:10:34;4.65;;;3.58;;
18046;SDS011;9148;51.454;13.862;2023-08-21T10:13:03;7.07;;;3.47;;
18046;SDS011;9148;51.454;13.862;2023-08-21T10:15:30;5.78;;;3.35;;
18046;SDS011;9148;51.454;13.862;2023-08-21T10:17:58;6.38;;;2.95;;
18046;SDS011;9148;51.454;13.862;2023-08-21T10:20:47;5.68;;;2.75;;
18046;SDS011;9148;51.454;13.862;2023-08-21T10:25:58;3.53;;;2.65;;
18046;SDS011;9148;51.454;13.862;2023-08-21T10:31:24;2.65;;;2.45;;
18046;SDS011;9148;51.454;13.862;2023-08-21T10:33:55;3.10;;;2.53;;
18046;SDS011;9148;51.454;13.862;2023-08-21T10:36:36;3.45;;;2.50;;
18046;SDS011;9148;51.454;13.862;2023-08-21T10:39:14;4.88;;;3.10;;
18046;SDS011;9148;51.454;13.862;2023-08-21T10:41:56;3.53;;;2.67;;
18046;SDS011;9148;51.454;13.862;2023-08-21T10:45:12;4.30;;;2.78;;
18046;SDS011;9148;51.454;13.862;2023-08-21T10:50:00;4.78;;;2.35;;
18046;SDS011;9148;51.454;13.862;2023-08-21T10:52:41;2.90;;;1.95;;
18046;SDS011;9148;51.454;13.862;2023-08-21T10:55:12;3.60;;;2.47;;
18046;SDS011;9148;51.454;13.862;2023-08-21T10:57:40;2.72;;;2.03;;
18046;SDS011;9148;51.454;13.862;2023-08-21T11:00:16;1.52;;;1.25;;
18046;SDS011;9148;51.454;13.862;2023-08-21T11:02:44;2.40;;;1.92;;
18046;SDS011;9148;51.454;13.862;2023-08-21T11:05:11;3.72;;;1.63;;
18046;SDS011;9148;51.454;13.862;2023-08-21T11:07:39;2.85;;;2.08;;
18046;SDS011;9148;51.454;13.862;2023-08-21T11:10:11;2.55;;;1.48;;
18046;SDS011;9148;51.454;13.862;2023-08-21T11:12:53;3.30;;;1.83;;
18046;SDS011;9148;51.454;13.862;2023-08-21T11:15:24;3.10;;;2.22;;
18046;SDS011;9148;51.454;13.862;2023-08-21T11:17:53;3.53;;;1.95;;
18046;SDS011;9148;51.454;13.862;2023-08-21T11:20:35;1.35;;;1.23;;
18046;SDS011;9148;51.454;13.862;2023-08-21T11:23:02;4.47;;;2.30;;
18046;SDS011;9148;51.454;13.862;2023-08-21T11:25:31;3.08;;;1.73;;
18046;SDS011;9148;51.454;13.862;2023-08-21T11:27:58;1.55;;;1.40;;
18046;SDS011;9148;51.454;13.862;2023-08-21T11:30:27;2.42;;;1.70;;
18046;SDS011;9148;51.454;13.862;2023-08-21T11:33:09;3.45;;;1.55;;
18046;SDS011;9148;51.454;13.862;2023-08-21T11:35:37;1.83;;;1.15;;
18046;SDS011;9148;51.454;13.862;2023-08-21T11:38:16;2.25;;;1.58;;
18046;SDS011;9148;51.454;13.862;2023-08-21T11:40:57;1.67;;;0.98;;
18046;SDS011;9148;51.454;13.862;2023-08-21T11:43:37;2.15;;;1.67;;
18046;SDS011;9148;51.454;13.862;2023-08-21T11:46:08;1.50;;;1.20;;
18046;SDS011;9148;51.454;13.862;2023-08-21T11:48:37;2.28;;;1.30;;
18046;SDS011;9148;51.454;13.862;2023-08-21T11:51:03;3.17;;;1.23;;
18046;SDS011;9148;51.454;13.862;2023-08-21T11:53:48;3.00;;;1.10;;
18046;SDS011;9148;51.454;13.862;2023-08-21T11:56:17;4.43;;;2.20;;
18046;SDS011;9148;51.454;13.862;2023-08-21T11:58:44;2.35;;;1.52;;
18046;SDS011;9148;51.454;13.862;2023-08-21T12:01:15;2.60;;;1.55;;
18046;SDS011;9148;51.454;13.862;2023-08-21T12:03:43;2.17;;;1.52;;
18046;SDS011;9148;51.454;13.862;2023-08-21T12:06:10;2.00;;;1.20;;
18046;SDS011;9148;51.454;13.862;2023-08-21T12:08:37;2.10;;;1.50;;
18046;SDS011;9148;51.454;13.862;2023-08-21T12:11:04;2.50;;;1.35;;
18046;SDS011;9148;51.454;13.862;2023-08-21T12:13:30;2.58;;;1.88;;
18046;SDS011;9148;51.454;13.862;2023-08-21T12:15:56;2.40;;;2.05;;
18046;SDS011;9148;51.454;13.862;2023-08-21T12:18:22;4.75;;;2.88;;
18046;SDS011;9148;51.454;13.862;2023-08-21T12:20:48;3.28;;;1.92;;
18046;SDS011;9148;51.454;13.862;2023-08-21T12:23:14;2.15;;;1.33;;
18046;SDS011;9148;51.454;13.862;2023-08-21T12:25:40;4.75;;;2.42;;
18046;SDS011;9148;51.454;13.862;2023-08-21T12:28:07;2.92;;;1.70;;
18046;SDS011;9148;51.454;13.862;2023-08-21T12:30:33;5.57;;;1.88;;
18046;SDS011;9148;51.454;13.862;2023-08-21T12:32:59;2.08;;;1.80;;
18046;SDS011;9148;51.454;13.862;2023-08-21T12:35:25;2.05;;;1.23;;
18046;SDS011;9148;51.454;13.862;2023-08-21T12:37:51;1.88;;;1.73;;
18046;SDS011;9148;51.454;13.862;2023-08-21T12:40:23;2.67;;;1.27;;
18046;SDS011;9148;51.454;13.862;2023-08-21T12:42:49;2.08;;;1.40;;
18046;SDS011;9148;51.454;13.862;2023-08-21T12:45:15;2.20;;;1.58;;
18046;SDS011;9148;51.454;13.862;2023-08-21T12:47:41;2.25;;;1.85;;
18046;SDS011;9148;51.454;13.862;2023-08-21T12:50:07;2.42;;;1.67;;
18046;SDS011;9148;51.454;13.862;2023-08-21T12:52:34;3.05;;;1.70;;
18046;SDS011;9148;51.454;13.862;2023-08-21T12:54:59;3.30;;;1.58;;
18046;SDS011;9148;51.454;13.862;2023-08-21T12:57:28;3.28;;;1.92;;
18046;SDS011;9148;51.454;13.862;2023-08-21T12:59:54;2.25;;;1.63;;
18046;SDS011;9148;51.454;13.862;2023-08-21T13:02:19;2.10;;;1.13;;
18046;SDS011;9148;51.454;13.862;2023-08-21T13:04:48;2.72;;;1.98;;
18046;SDS011;9148;51.454;13.862;2023-08-21T13:07:14;4.28;;;1.63;;
18046;SDS011;9148;51.454;13.862;2023-08-21T13:09:39;2.42;;;1.90;;
18046;SDS011;9148;51.454;13.862;2023-08-21T13:12:05;2.55;;;1.77;;
18046;SDS011;9148;51.454;13.862;2023-08-21T13:14:32;1.85;;;1.30;;
18046;SDS011;9148;51.454;13.862;2023-08-21T13:16:57;1.58;;;1.23;;
18046;SDS011;9148;51.454;13.862;2023-08-21T13:19:23;2.45;;;1.58;;
18046;SDS011;9148;51.454;13.862;2023-08-21T13:21:48;1.90;;;1.40;;
18046;SDS011;9148;51.454;13.862;2023-08-21T13:24:14;2.38;;;1.25;;
18046;SDS011;9148;51.454;13.862;2023-08-21T13:26:40;1.77;;;1.52;;
18046;SDS011;9148;51.454;13.862;2023-08-21T13:29:05;1.55;;;1.25;;
18046;SDS011;9148;51.454;13.862;2023-08-21T13:31:34;1.60;;;1.50;;
18046;SDS011;9148;51.454;13.862;2023-08-21T13:33:59;2.80;;;1.40;;
18046;SDS011;9148;51.454;13.862;2023-08-21T13:36:25;1.25;;;1.05;;
18046;SDS011;9148;51.454;13.862;2023-08-21T13:38:52;1.45;;;1.35;;
18046;SDS011;9148;51.454;13.862;2023-08-21T13:41:17;2.83;;;1.00;;
18046;SDS011;9148;51.454;13.862;2023-08-21T13:43:43;1.27;;;1.15;;
18046;SDS011;9148;51.454;13.862;2023-08-21T13:46:09;1.75;;;1.30;;
18046;SDS011;9148;51.454;13.862;2023-08-21T13:48:34;1.60;;;1.25;;
18046;SDS011;9148;51.454;13.862;2023-08-21T13:51:00;1.58;;;1.25;;
18046;SDS011;9148;51.454;13.862;2023-08-21T13:53:26;4.05;;;1.55;;
18046;SDS011;9148;51.454;13.862;2023-08-21T13:55:51;3.22;;;1.40;;
18046;SDS011;9148;51.454;13.862;2023-08-21T13:58:17;2.58;;;1.48;;
18046;SDS011;9148;51.454;13.862;2023-08-21T14:00:43;1.40;;;1.15;;
18046;SDS011;9148;51.454;13.862;2023-08-21T14:03:11;1.40;;;1.25;;
18046;SDS011;9148;51.454;13.862;2023-08-21T14:05:37;2.65;;;1.27;;
18046;SDS011;9148;51.454;13.862;2023-08-21T14:08:03;1.52;;;1.38;;
18046;SDS011;9148;51.454;13.862;2023-08-21T14:10:29;1.52;;;1.17;;
18046;SDS011;9148;51.454;13.862;2023-08-21T14:12:55;3.25;;;1.75;;
18046;SDS011;9148;51.454;13.862;2023-08-21T14:15:22;2.13;;;1.20;;
18046;SDS011;9148;51.454;13.862;2023-08-21T14:17:48;7.30;;;1.52;;
18046;SDS011;9148;51.454;13.862;2023-08-21T14:20:14;2.40;;;1.13;;
18046;SDS011;9148;51.454;13.862;2023-08-21T14:22:40;2.10;;;1.60;;
18046;SDS011;9148;51.454;13.862;2023-08-21T14:25:06;1.33;;;1.00;;
18046;SDS011;9148;51.454;13.862;2023-08-21T14:27:32;0.95;;;0.90;;
18046;SDS011;9148;51.454;13.862;2023-08-21T14:29:58;0.85;;;0.80;;
18046;SDS011;9148;51.454;13.862;2023-08-21T14:32:24;1.33;;;1.23;;
18046;SDS011;9148;51.454;13.862;2023-08-21T14:34:50;1.60;;;1.50;;
18046;SDS011;9148;51.454;13.862;2023-08-21T14:37:17;1.02;;;0.90;;
18046;SDS011;9148;51.454;13.862;2023-08-21T14:39:43;1.85;;;1.02;;
18046;SDS011;9148;51.454;13.862;2023-08-21T14:42:09;1.65;;;1.05;;
18046;SDS011;9148;51.454;13.862;2023-08-21T14:44:36;1.63;;;0.95;;
18046;SDS011;9148;51.454;13.862;2023-08-21T14:47:02;1.60;;;1.13;;
18046;SDS011;9148;51.454;13.862;2023-08-21T14:49:28;3.53;;;0.73;;
18046;SDS011;9148;51.454;13.862;2023-08-21T14:51:53;1.58;;;0.98;;
18046;SDS011;9148;51.454;13.862;2023-08-21T14:54:19;0.95;;;0.63;;
18046;SDS011;9148;51.454;13.862;2023-08-21T14:56:45;1.50;;;1.10;;
18046;SDS011;9148;51.454;13.862;2023-08-21T14:59:11;1.90;;;1.55;;
18046;SDS011;9148;51.454;13.862;2023-08-21T15:01:39;5.22;;;1.58;;
18046;SDS011;9148;51.454;13.862;2023-08-21T15:04:05;2.75;;;1.10;;
18046;SDS011;9148;51.454;13.862;2023-08-21T15:06:32;1.40;;;0.90;;